Time;durP1;ratioP1;P1;durP2;ratioP2;P2;SDS_P1;SDS_P2;PMS_P1;PMS_P2;Temp;Humidity;BMP_temperature;BMP_pressure;BME280_temperature;BME280_humidity;BME280_pressure;Samples;Min_cycle;Max_cycle;Signal;HPM_P1;HPM_P2
2021/12/04 00:02:01;;;;;;;39.00;18.25;;;5.50;99.90;;;;;;5052792;28;20522;-80
2021/12/04 00:04:33;;;;;;;39.17;17.48;;;6.10;99.90;;;;;;5069839;28;20041;-80
2021/12/04 00:06:59;;;;;;;42.92;18.63;;;5.50;99.90;;;;;;5069004;28;20647;-80
2021/12/04 00:09:25;;;;;;;47.22;19.30;;;5.10;99.90;;;;;;5069500;28;20093;-80
2021/12/04 00:11:53;;;;;;;42.38;19.17;;;5.10;99.90;;;;;;5069167;28;20056;-80
2021/12/04 00:14:19;;;;;;;45.53;18.25;;;6.60;99.90;;;;;;5067370;28;20081;-80
2021/12/04 00:16:45;;;;;;;47.00;18.33;;;5.10;99.90;;;;;;5069976;28;20045;-81
2021/12/04 00:19:12;;;;;;;51.45;19.73;;;5.10;99.90;;;;;;5052257;28;20056;-81
2021/12/04 00:21:38;;;;;;;53.75;20.50;;;5.40;99.90;;;;;;5069736;28;20066;-81
2021/12/04 00:24:04;;;;;;;55.50;19.58;;;5.40;99.90;;;;;;5069354;28;20116;-81
2021/12/04 00:26:29;;;;;;;46.65;17.80;;;5.10;99.90;;;;;;5069514;28;20155;-81
2021/12/04 00:28:55;;;;;;;53.80;20.42;;;5.40;99.90;;;;;;5051712;28;20120;-80
2021/12/04 00:31:21;;;;;;;56.60;20.70;;;6.50;99.90;;;;;;5052711;28;20052;-81
2021/12/04 00:33:48;;;;;;;57.83;20.67;;;5.10;99.90;;;;;;5070021;28;20456;-80
2021/12/04 00:36:51;;;;;;;51.35;20.60;;;5.10;99.90;;;;;;5051871;28;20040;-81
2021/12/04 00:49:57;;;;;;;55.67;19.85;;;5.10;99.90;;;;;;5066782;28;20068;-81
2021/12/04 00:52:23;;;;;;;59.50;21.63;;;5.20;99.90;;;;;;5072002;28;20044;-81
2021/12/04 00:54:49;;;;;;;53.83;20.05;;;5.00;99.90;;;;;;5056190;28;20032;-81
2021/12/04 00:57:15;;;;;;;56.35;21.02;;;5.70;99.90;;;;;;5072349;28;20056;-81
2021/12/04 00:59:40;;;;;;;64.55;23.27;;;6.20;99.90;;;;;;5072746;28;20101;-79
2021/12/04 01:02:06;;;;;;;61.53;20.80;;;6.20;99.90;;;;;;5055539;28;20122;-79
2021/12/04 01:04:32;;;;;;;65.70;21.00;;;4.90;99.90;;;;;;5055963;28;20120;-80
2021/12/04 01:06:58;;;;;;;47.10;18.63;;;5.70;99.90;;;;;;5072624;28;20048;-79
2021/12/04 01:09:25;;;;;;;55.10;19.25;;;5.00;99.90;;;;;;5072794;28;20044;-79
2021/12/04 01:11:53;;;;;;;63.95;22.33;;;5.00;99.90;;;;;;5069979;28;20040;-78
2021/12/04 01:14:21;;;;;;;57.78;20.48;;;4.90;99.90;;;;;;5072926;28;20064;-79
2021/12/04 01:16:48;;;;;;;62.58;21.17;;;5.10;99.90;;;;;;5072392;28;20028;-80
2021/12/04 01:19:14;;;;;;;;;;;5.70;99.90;;;;;;5074003;28;20043;-80
2021/12/04 01:21:41;;;;;;;59.33;21.08;;;5.00;99.90;;;;;;5071812;28;19970;-79
2021/12/04 01:24:07;;;;;;;59.40;20.00;;;4.90;99.90;;;;;;5054953;28;20036;-79
2021/12/04 01:26:33;;;;;;;41.90;16.45;;;4.90;99.90;;;;;;5073145;28;20055;-80
2021/12/04 01:28:59;;;;;;;56.25;19.63;;;5.20;99.90;;;;;;5071708;28;20120;-80
2021/12/04 01:31:25;;;;;;;66.83;22.63;;;6.30;99.90;;;;;;5072078;28;20115;-80
2021/12/04 01:33:51;;;;;;;60.30;20.60;;;6.00;99.90;;;;;;5071658;28;20346;-80
2021/12/04 01:36:16;;;;;;;56.85;19.42;;;5.70;99.90;;;;;;5070157;28;20055;-80
2021/12/04 01:38:42;;;;;;;66.00;21.33;;;5.70;99.90;;;;;;5071083;28;20071;-80
2021/12/04 01:41:08;;;;;;;73.03;23.35;;;5.60;99.90;;;;;;5069415;28;20377;-79
2021/12/04 01:43:34;;;;;;;59.40;19.95;;;4.80;99.90;;;;;;5069460;28;20503;-79
2021/12/04 01:46:00;;;;;;;72.78;23.08;;;4.90;99.90;;;;;;5069351;28;20044;-79
2021/12/04 01:48:26;;;;;;;63.50;19.73;;;4.80;99.90;;;;;;5070122;28;20044;-79
2021/12/04 01:50:54;;;;;;;72.13;23.08;;;5.90;99.90;;;;;;5070403;28;20032;-80
2021/12/04 01:53:20;;;;;;;70.15;22.77;;;4.80;99.90;;;;;;5071667;28;20431;-79
2021/12/04 01:55:46;;;;;;;69.05;21.52;;;6.30;99.90;;;;;;5038057;28;20048;-79
2021/12/04 01:58:12;;;;;;;72.88;22.00;;;5.20;99.90;;;;;;5071996;28;20046;-79
2021/12/04 02:00:40;;;;;;;74.53;23.05;;;6.10;99.90;;;;;;5071279;28;20123;-79
2021/12/04 02:03:08;;;;;;;75.90;22.02;;;5.80;99.90;;;;;;5053413;28;20485;-79
2021/12/04 02:05:38;;;;;;;63.30;20.60;;;4.80;99.90;;;;;;5070965;28;20647;-79
2021/12/04 02:08:08;;;;;;;69.13;22.15;;;4.80;99.90;;;;;;5070414;28;20044;-80
2021/12/04 02:10:35;;;;;;;74.82;22.63;;;4.90;99.90;;;;;;5070935;28;20040;-79
2021/12/04 02:13:02;;;;;;;66.15;20.02;;;6.10;99.90;;;;;;5070475;28;20060;-79
2021/12/04 02:15:28;;;;;;;;;;;4.90;99.90;;;;;;5073312;28;20107;-79
2021/12/04 02:17:54;;;;;;;74.53;22.05;;;5.10;99.90;;;;;;5054893;28;20332;-79
2021/12/04 02:20:23;;;;;;;71.80;24.00;;;5.80;99.90;;;;;;5051387;28;20079;-79
2021/12/04 02:22:50;;;;;;;76.43;22.05;;;5.30;99.90;;;;;;5070811;28;20133;-79
2021/12/04 02:25:16;;;;;;;80.20;21.75;;;5.20;99.90;;;;;;5072343;28;20820;-79
2021/12/04 02:27:43;;;;;;;79.28;21.92;;;6.30;99.90;;;;;;5070534;28;20037;-79
2021/12/04 02:30:11;;;;;;;;;;;5.80;99.90;;;;;;5054233;28;20051;-80
2021/12/04 02:32:38;;;;;;;70.47;20.95;;;5.10;99.90;;;;;;5087482;28;19916;-80
2021/12/04 02:35:04;;;;;;;;;;;6.00;99.90;;;;;;5054125;28;20068;-79
2021/12/04 02:37:32;;;;;;;69.70;21.83;;;4.90;99.90;;;;;;5070746;28;19935;-79
2021/12/04 02:39:59;;;;;;;86.38;23.90;;;5.80;99.90;;;;;;5053798;28;20071;-80
2021/12/04 02:42:28;;;;;;;68.13;20.67;;;4.80;99.90;;;;;;5037949;28;20527;-79
2021/12/04 02:44:54;;;;;;;67.88;20.40;;;4.80;99.90;;;;;;5072096;28;20430;-79
2021/12/04 02:47:21;;;;;;;79.13;22.67;;;5.30;99.90;;;;;;5053655;28;20059;-79
2021/12/04 02:49:46;;;;;;;;;;;4.80;99.90;;;;;;5070880;28;20044;-79
2021/12/04 02:52:14;;;;;;;82.13;21.90;;;4.80;99.90;;;;;;5069949;28;20283;-79
2021/12/04 02:54:40;;;;;;;72.50;19.95;;;6.10;99.90;;;;;;5070153;28;20048;-79
2021/12/04 02:57:08;;;;;;;73.53;22.20;;;4.80;99.90;;;;;;5069587;28;20043;-79
2021/12/04 02:59:35;;;;;;;77.00;20.50;;;4.80;99.90;;;;;;5070590;28;20068;-80
2021/12/04 03:02:01;;;;;;;74.05;20.13;;;5.40;99.90;;;;;;5069342;28;20036;-79
2021/12/04 03:04:28;;;;;;;66.57;19.77;;;5.40;99.90;;;;;;5070329;28;20047;-79
2021/12/04 03:06:54;;;;;;;84.75;22.05;;;4.80;99.90;;;;;;5070226;28;20040;-80
2021/12/04 03:09:20;;;;;;;83.88;23.25;;;5.60;99.90;;;;;;5069736;28;20054;-79
2021/12/04 03:11:46;;;;;;;67.53;20.33;;;4.80;99.90;;;;;;5071044;28;20041;-80
2021/12/04 03:14:12;;;;;;;59.40;19.48;;;5.70;99.90;;;;;;5069175;28;20060;-79
2021/12/04 03:16:39;;;;;;;63.90;20.35;;;6.10;99.90;;;;;;5069904;28;20046;-79
2021/12/04 03:19:06;;;;;;;57.75;19.60;;;5.60;99.90;;;;;;5052403;28;20481;-79
2021/12/04 03:21:35;;;;;;;51.97;15.95;;;4.80;99.90;;;;;;5053172;28;20503;-79
2021/12/04 03:24:06;;;;;;;49.28;17.33;;;5.30;99.90;;;;;;5053009;28;20094;-79
2021/12/04 03:26:33;;;;;;;45.65;16.75;;;6.20;99.90;;;;;;5069951;28;20036;-79
2021/12/04 03:29:03;;;;;;;45.85;16.23;;;4.80;99.90;;;;;;5071074;28;20170;-79
2021/12/04 03:42:21;;;;;;;51.33;16.15;;;4.80;99.90;;;;;;5053178;28;20127;-79
2021/12/04 03:44:48;;;;;;;46.95;15.50;;;4.80;99.90;;;;;;5052701;28;20052;-79
2021/12/04 03:47:14;;;;;;;49.75;15.90;;;4.90;99.90;;;;;;5052164;28;20052;-79
2021/12/04 03:49:39;;;;;;;41.17;14.68;;;4.90;99.90;;;;;;5069447;28;20436;-79
2021/12/04 03:52:07;;;;;;;41.53;14.70;;;5.40;99.90;;;;;;5068842;28;20048;-79
2021/12/04 03:54:34;;;;;;;39.85;14.43;;;5.00;99.90;;;;;;5052776;28;20044;-79
2021/12/04 03:57:05;;;;;;;;;;;6.10;99.90;;;;;;5053503;28;20811;-79
2021/12/04 03:59:36;;;;;;;42.65;15.77;;;4.80;99.90;;;;;;5069519;28;19927;-79
2021/12/04 04:02:04;;;;;;;41.55;14.82;;;4.80;99.90;;;;;;5052517;28;20040;-79
2021/12/04 04:04:30;;;;;;;42.30;14.95;;;4.80;99.90;;;;;;5069983;28;20029;-79
2021/12/04 04:06:55;;;;;;;47.22;15.20;;;5.60;99.90;;;;;;5066941;28;20044;-79
2021/12/04 04:09:21;;;;;;;43.73;16.03;;;4.70;99.90;;;;;;5052520;28;20047;-79
2021/12/04 04:11:47;;;;;;;50.63;16.67;;;4.80;99.90;;;;;;5066990;28;20365;-79
2021/12/04 04:14:14;;;;;;;48.08;14.68;;;4.70;99.90;;;;;;5066276;28;20033;-79
2021/12/04 04:16:40;;;;;;;46.45;16.05;;;4.90;99.90;;;;;;5069344;28;20196;-80
2021/12/04 04:19:07;;;;;;;49.92;16.17;;;6.00;99.90;;;;;;5069285;28;20110;-80
2021/12/04 04:21:39;;;;;;;60.50;17.73;;;4.80;99.90;;;;;;5063911;28;20113;-80
2021/12/04 04:24:12;;;;;;;41.78;14.80;;;5.80;99.90;;;;;;5069359;28;20480;-80
2021/12/04 04:26:39;;;;;;;52.63;16.65;;;4.70;99.90;;;;;;5069338;28;20040;-80
2021/12/04 04:29:07;;;;;;;41.92;14.57;;;5.40;99.90;;;;;;5072898;28;20106;-80
2021/12/04 04:31:36;;;;;;;49.30;15.27;;;4.60;99.90;;;;;;5072955;28;20149;-80
2021/12/04 04:34:08;;;;;;;42.03;14.25;;;5.50;99.90;;;;;;5073128;28;20048;-80
2021/12/04 04:58:50;;;;;;;41.40;13.80;;;5.40;99.90;;;;;;5072208;28;20484;-79
2021/12/04 05:14:38;;;;;;;48.13;15.15;;;4.60;99.90;;;;;;5071662;28;20178;-80
2021/12/04 05:17:07;;;;;;;41.20;14.35;;;4.60;99.90;;;;;;5071297;28;20028;-80
2021/12/04 05:19:43;;;;;;;55.20;16.98;;;4.60;99.90;;;;;;5073208;28;20055;-80
2021/12/04 05:22:11;;;;;;;53.42;15.63;;;5.80;99.90;;;;;;5070964;28;20036;-80
2021/12/04 05:24:37;;;;;;;48.47;15.52;;;4.60;99.90;;;;;;5072000;28;20051;-80
2021/12/04 05:27:03;;;;;;;42.00;15.00;;;6.00;99.90;;;;;;5055279;28;20411;-80
2021/12/04 05:29:29;;;;;;;48.45;14.25;;;4.60;99.90;;;;;;5071505;28;20044;-80
2021/12/04 05:31:55;;;;;;;42.00;14.30;;;4.60;99.90;;;;;;5038431;28;20094;-80
2021/12/04 05:34:20;;;;;;;51.75;15.05;;;4.60;99.90;;;;;;5071416;28;20032;-80
2021/12/04 05:36:46;;;;;;;49.35;14.50;;;4.50;99.90;;;;;;5038533;28;20037;-80
2021/12/04 05:39:14;;;;;;;43.70;14.73;;;4.60;99.90;;;;;;5051183;28;20484;-79
2021/12/04 05:41:40;;;;;;;39.45;13.77;;;5.00;99.90;;;;;;5036576;28;20117;-79
2021/12/04 05:44:08;;;;;;;49.67;13.45;;;5.20;99.90;;;;;;5054902;28;20036;-79
2021/12/04 05:46:46;;;;;;;36.60;12.68;;;4.80;99.90;;;;;;5054798;28;20036;-79
2021/12/04 05:49:52;;;;;;;47.08;14.13;;;5.30;99.90;;;;;;5073029;28;20120;-79
2021/12/04 05:57:09;;;;;;;38.23;11.80;;;5.30;99.90;;;;;;5072524;28;20041;-79
2021/12/04 05:59:35;;;;;;;38.90;13.52;;;4.90;99.90;;;;;;5071266;28;20279;-79
2021/12/04 06:02:02;;;;;;;41.22;13.93;;;5.20;99.90;;;;;;5071354;28;20476;-79
2021/12/04 06:04:27;;;;;;;;;;;4.60;99.90;;;;;;5054456;28;20036;-82
2021/12/04 06:06:53;;;;;;;40.08;13.57;;;4.70;99.90;;;;;;5087969;28;19969;-79
2021/12/04 06:09:20;;;;;;;38.58;13.10;;;5.10;99.90;;;;;;5070538;28;20488;-79
2021/12/04 06:11:46;;;;;;;38.67;13.55;;;4.50;99.90;;;;;;5071174;28;20032;-79
2021/12/04 06:14:12;;;;;;;35.33;12.57;;;4.60;99.90;;;;;;5070817;28;20040;-79
2021/12/04 06:16:37;;;;;;;32.63;12.40;;;5.70;99.90;;;;;;5054100;28;20041;-78
2021/12/04 06:19:24;;;;;;;33.47;13.02;;;5.20;99.90;;;;;;5072545;28;20044;-79
2021/12/04 06:24:34;;;;;;;39.53;13.25;;;4.10;99.90;;;;;;5056270;28;20098;-79
2021/12/04 06:27:00;;;;;;;33.92;11.77;;;5.60;99.90;;;;;;5071925;28;20714;-79
2021/12/04 06:29:26;;;;;;;36.00;13.07;;;4.60;99.90;;;;;;5053380;28;20389;-79
2021/12/04 06:31:52;;;;;;;39.13;12.73;;;5.10;99.90;;;;;;5070613;28;20411;-80
2021/12/04 06:34:17;;;;;;;39.78;12.57;;;5.50;99.90;;;;;;5070177;28;20063;-79
2021/12/04 06:36:43;;;;;;;39.42;13.30;;;4.60;99.90;;;;;;5053689;28;20349;-79
2021/12/04 06:39:09;;;;;;;31.60;11.03;;;4.60;99.90;;;;;;5054020;28;20032;-79
2021/12/04 06:41:35;;;;;;;45.45;13.60;;;4.60;99.90;;;;;;5071298;28;20033;-79
2021/12/04 06:44:01;;;;;;;52.67;13.80;;;4.70;99.90;;;;;;5071505;28;20032;-79
2021/12/04 06:46:28;;;;;;;50.72;14.40;;;4.80;99.90;;;;;;5069807;28;20396;-79
2021/12/04 06:49:08;;;;;;;55.15;15.25;;;5.30;99.90;;;;;;5069814;28;20087;-79
2021/12/04 06:51:37;;;;;;;65.53;14.10;;;5.30;99.90;;;;;;5085265;28;20146;-79
2021/12/04 06:54:07;;;;;;;39.30;12.32;;;4.70;99.90;;;;;;5069645;28;20044;-79
2021/12/04 06:56:35;;;;;;;64.80;14.98;;;5.30;99.90;;;;;;5070923;28;20039;-79
2021/12/04 06:59:06;;;;;;;55.75;15.30;;;4.90;99.90;;;;;;5069955;28;20463;-79
2021/12/04 07:01:33;;;;;;;64.47;16.23;;;4.80;99.90;;;;;;5067587;28;20073;-79
2021/12/04 07:03:58;;;;;;;;;;;5.10;99.90;;;;;;5070023;28;20097;-79
2021/12/04 07:06:24;;;;;;;65.18;15.10;;;5.70;99.90;;;;;;5068793;28;19928;-79
2021/12/04 07:08:50;;;;;;;54.60;14.80;;;5.30;99.90;;;;;;5070178;28;20067;-79
2021/12/04 07:11:16;;;;;;;56.63;14.77;;;4.70;99.90;;;;;;5052187;28;20039;-80
2021/12/04 07:13:42;;;;;;;44.92;13.93;;;4.90;99.90;;;;;;5068056;28;20667;-80
2021/12/04 07:16:08;;;;;;;57.55;15.65;;;4.80;99.90;;;;;;5067896;28;20392;-80
2021/12/04 07:18:35;;;;;;;50.83;15.30;;;4.70;99.90;;;;;;5053043;28;20052;-80
2021/12/04 07:21:02;;;;;;;42.22;11.15;;;4.80;99.90;;;;;;5053035;28;20083;-80
2021/12/04 07:23:28;;;;;;;61.70;15.73;;;4.90;99.90;;;;;;5069003;28;20059;-80
2021/12/04 07:25:55;;;;;;;49.88;13.00;;;4.90;99.90;;;;;;5071058;28;20083;-80
2021/12/04 07:28:20;;;;;;;;;;;5.30;99.90;;;;;;5052824;28;20110;-80
2021/12/04 07:30:46;;;;;;;51.20;13.55;;;4.80;99.90;;;;;;5071274;28;19916;-80
2021/12/04 07:33:12;;;;;;;53.83;13.90;;;5.50;99.90;;;;;;5053258;28;20162;-80
2021/12/04 07:35:38;;;;;;;54.13;14.80;;;4.80;99.90;;;;;;5069446;28;20047;-80
2021/12/04 07:38:03;;;;;;;58.15;15.57;;;4.60;99.90;;;;;;5069120;28;20044;-81
2021/12/04 07:40:29;;;;;;;48.30;13.70;;;4.70;99.90;;;;;;5069120;28;20062;-79
2021/12/04 07:42:55;;;;;;;48.53;13.32;;;4.80;99.90;;;;;;5070280;28;20048;-80
2021/12/04 07:45:21;;;;;;;61.65;16.50;;;4.80;99.90;;;;;;5071187;28;20056;-80
2021/12/04 07:47:47;;;;;;;55.28;14.65;;;6.20;99.90;;;;;;5068209;28;20443;-79
2021/12/04 07:50:14;;;;;;;66.40;15.75;;;4.70;99.90;;;;;;5050484;28;20569;-79
2021/12/04 07:52:41;;;;;;;59.45;15.75;;;4.70;99.90;;;;;;5070386;28;20460;-81
2021/12/04 07:55:07;;;;;;;;;;;4.80;99.90;;;;;;5054454;28;20043;-81
2021/12/04 07:57:33;;;;;;;56.58;13.60;;;4.70;99.90;;;;;;5055357;28;20378;-81
2021/12/04 07:59:59;;;;;;;51.97;15.25;;;4.70;99.90;;;;;;5055563;28;20047;-81
2021/12/04 08:02:25;;;;;;;45.78;14.30;;;5.00;99.90;;;;;;5055294;28;20123;-79
2021/12/04 08:04:51;;;;;;;47.78;13.45;;;4.60;99.90;;;;;;5076162;28;20570;-81
2021/12/04 08:07:17;;;;;;;47.22;13.80;;;4.60;99.90;;;;;;5074674;28;20076;-81
2021/12/04 08:09:42;;;;;;;58.97;14.73;;;5.20;99.90;;;;;;5074469;28;20051;-80
2021/12/04 08:12:10;;;;;;;42.70;12.57;;;4.60;99.90;;;;;;5075778;28;20033;-81
2021/12/04 08:14:37;;;;;;;53.67;14.75;;;4.60;99.90;;;;;;5073016;28;20054;-81
2021/12/04 08:17:02;;;;;;;45.63;13.68;;;4.70;99.90;;;;;;5073829;28;20074;-79
2021/12/04 08:19:28;;;;;;;41.92;12.25;;;4.70;99.90;;;;;;5057979;28;20061;-82
2021/12/04 08:21:54;;;;;;;41.60;14.10;;;4.70;99.90;;;;;;5058120;28;20093;-82
2021/12/04 08:24:20;;;;;;;41.97;14.10;;;4.70;99.90;;;;;;5041603;28;20521;-81
2021/12/04 08:26:47;;;;;;;40.23;13.80;;;4.60;99.90;;;;;;5055498;28;20044;-82
2021/12/04 08:29:12;;;;;;;39.95;13.57;;;4.60;99.90;;;;;;5072296;28;20328;-82
2021/12/04 08:31:38;;;;;;;49.00;15.27;;;4.60;99.90;;;;;;5058214;28;20044;-82
2021/12/04 08:34:04;;;;;;;38.20;12.32;;;4.60;99.90;;;;;;5074202;28;20040;-80
2021/12/04 08:36:32;;;;;;;40.80;12.07;;;5.40;99.90;;;;;;5040596;28;20113;-79
2021/12/04 08:39:03;;;;;;;41.78;14.27;;;4.70;99.90;;;;;;5073334;28;20036;-77
2021/12/04 08:41:29;;;;;;;43.20;14.60;;;4.70;99.90;;;;;;5073439;28;20040;-81
2021/12/04 08:43:55;;;;;;;39.13;12.63;;;4.60;99.90;;;;;;5073255;28;20094;-80
2021/12/04 08:46:22;;;;;;;40.65;13.25;;;5.40;99.90;;;;;;5055886;28;20041;-80
2021/12/04 08:48:51;;;;;;;46.03;13.15;;;4.60;99.90;;;;;;5055803;28;20132;-80
2021/12/04 08:51:18;;;;;;;38.33;12.95;;;4.60;99.90;;;;;;5072965;28;20456;-80
2021/12/04 08:53:44;;;;;;;39.05;13.07;;;4.60;99.90;;;;;;5072512;28;20037;-81
2021/12/04 08:56:10;;;;;;;28.52;10.25;;;5.40;99.90;;;;;;5056328;28;20069;-79
2021/12/04 08:58:39;;;;;;;31.50;9.90;;;4.70;99.90;;;;;;5072723;28;20456;-80
2021/12/04 09:01:11;;;;;;;34.45;12.32;;;4.70;99.90;;;;;;5072651;28;20056;-80
2021/12/04 09:03:41;;;;;;;34.10;12.07;;;5.10;99.90;;;;;;5070129;28;20036;-80
2021/12/04 09:06:07;;;;;;;32.25;11.77;;;4.70;99.90;;;;;;5072289;28;20107;-79
2021/12/04 09:08:34;;;;;;;26.52;9.85;;;5.50;99.90;;;;;;5039686;28;20469;-80
2021/12/04 09:11:07;;;;;;;26.40;9.93;;;4.70;99.90;;;;;;5072374;28;20035;-80
2021/12/04 09:13:34;;;;;;;25.77;9.77;;;4.80;99.90;;;;;;5072409;28;20032;-77
2021/12/04 09:16:01;;;;;;;22.95;9.02;;;4.80;99.90;;;;;;5072801;28;20047;-79
2021/12/04 09:18:26;;;;;;;;;;;5.20;99.90;;;;;;5072752;28;20068;-79
2021/12/04 09:20:54;;;;;;;22.52;8.90;;;4.80;99.90;;;;;;5072209;28;19916;-76
2021/12/04 09:23:21;;;;;;;21.30;8.20;;;4.80;99.90;;;;;;5055533;28;20075;-79
2021/12/04 09:26:01;;;;;;;19.25;8.23;;;4.70;99.90;;;;;;5071770;28;20530;-79
2021/12/04 09:28:37;;;;;;;18.65;8.38;;;4.80;99.90;;;;;;5054995;28;20075;-79
2021/12/04 10:18:08;;;;;;;16.88;8.77;;;5.00;99.90;;;;;;5068793;28;20121;-76
2021/12/04 10:23:29;;;;;;;15.13;8.50;;;5.10;99.90;;;;;;5070901;28;20231;-78
2021/12/04 10:34:28;;;;;;;14.30;7.85;;;5.20;99.90;;;;;;5070566;28;20120;-79
2021/12/04 10:37:05;;;;;;;16.35;8.43;;;5.10;99.90;;;;;;5070326;28;20115;-79
2021/12/04 10:39:30;;;;;;;18.35;8.70;;;5.20;99.90;;;;;;5071328;28;20052;-79
2021/12/04 10:41:56;;;;;;;13.65;7.85;;;5.10;99.90;;;;;;5053932;28;20051;-79
2021/12/04 10:44:26;;;;;;;18.15;8.93;;;5.20;99.90;;;;;;5054219;28;20040;-79
2021/12/04 10:47:10;;;;;;;19.30;8.80;;;5.10;99.90;;;;;;5053886;28;20032;-79
2021/12/04 10:49:51;;;;;;;19.70;9.25;;;5.20;99.90;;;;;;5068762;28;20036;-80
2021/12/04 10:52:18;;;;;;;17.40;8.60;;;5.20;99.90;;;;;;5054733;28;20442;-80
2021/12/04 10:54:50;;;;;;;17.27;9.10;;;5.20;99.90;;;;;;5070546;28;20159;-77
2021/12/04 11:02:54;;;;;;;17.20;8.50;;;6.20;99.90;;;;;;5067939;28;20079;-78
2021/12/04 11:25:30;;;;;;;13.50;8.00;;;5.40;99.90;;;;;;5069876;28;20041;-78
2021/12/04 11:46:41;;;;;;;15.70;7.47;;;5.40;99.90;;;;;;5070293;28;20076;-78
2021/12/04 11:49:16;;;;;;;18.35;8.20;;;5.40;99.90;;;;;;5069415;28;20051;-80
2021/12/04 11:51:56;;;;;;;15.52;8.07;;;5.40;99.90;;;;;;5067960;28;20032;-78
2021/12/04 11:54:26;;;;;;;15.02;7.90;;;6.00;99.90;;;;;;5069845;28;20522;-76
2021/12/04 11:57:09;;;;;;;14.77;7.78;;;5.40;99.90;;;;;;5069445;28;20043;-79
2021/12/04 11:59:37;;;;;;;15.88;7.93;;;5.70;99.90;;;;;;5069994;28;20404;-80
2021/12/04 12:02:06;;;;;;;15.55;7.47;;;5.80;99.90;;;;;;5052966;28;20495;-77
2021/12/04 12:04:41;;;;;;;17.77;8.18;;;5.40;99.90;;;;;;5053034;28;20051;-78
2021/12/04 12:07:15;;;;;;;16.25;7.18;;;5.40;99.90;;;;;;5067979;28;20044;-78
2021/12/04 12:09:41;;;;;;;17.50;8.38;;;5.50;99.90;;;;;;5070087;28;20044;-79
2021/12/04 12:12:12;;;;;;;16.30;7.28;;;5.50;99.90;;;;;;5069620;28;20041;-79
2021/12/04 12:14:46;;;;;;;16.75;8.80;;;5.40;99.90;;;;;;5087579;28;20098;-79
2021/12/04 12:17:12;;;;;;;17.38;9.05;;;5.50;99.90;;;;;;5070493;28;20040;-79
2021/12/04 12:19:43;;;;;;;19.60;8.85;;;5.40;99.90;;;;;;5068113;28;20040;-79
2021/12/04 12:22:34;;;;;;;18.33;8.55;;;6.00;99.90;;;;;;5068338;28;20485;-80
2021/12/04 12:26:26;;;;;;;18.73;8.65;;;5.50;99.90;;;;;;5099818;28;20044;-81
2021/12/04 12:36:29;;;;;;;17.73;8.30;;;5.50;99.90;;;;;;5070453;28;20496;-80
2021/12/04 12:39:11;;;;;;;20.10;8.77;;;5.50;99.90;;;;;;5067703;28;20520;-80
2021/12/04 12:41:41;;;;;;;19.48;9.32;;;5.60;99.90;;;;;;5062945;28;20123;-80
2021/12/04 12:44:13;;;;;;;17.52;8.07;;;5.60;99.90;;;;;;5070555;28;20037;-79
2021/12/04 12:46:50;;;;;;;21.13;8.75;;;5.60;99.90;;;;;;5053420;28;20097;-79
2021/12/04 12:49:25;;;;;;;;;;;5.70;99.90;;;;;;5071357;28;20083;-79
2021/12/04 12:52:24;;;;;;;20.63;8.88;;;5.60;99.90;;;;;;5073397;28;20011;-79
2021/12/04 12:55:08;;;;;;;22.23;9.48;;;5.50;99.90;;;;;;5071988;28;20033;-79
2021/12/04 12:57:43;;;;;;;28.33;11.63;;;5.50;99.90;;;;;;5055729;28;20447;-79
2021/12/04 13:12:01;;;;;;;27.67;12.32;;;5.70;99.90;;;;;;5044566;28;20116;-79
2021/12/04 13:14:46;;;;;;;26.83;11.95;;;5.50;99.90;;;;;;5068804;28;20036;-79
2021/12/04 13:17:21;;;;;;;29.08;12.10;;;5.40;99.90;;;;;;5071968;28;20028;-79
2021/12/04 13:19:51;;;;;;;31.77;12.00;;;5.40;99.90;;;;;;5069815;28;20461;-78
2021/12/04 13:22:23;;;;;;;26.00;11.75;;;5.40;99.90;;;;;;5070279;28;20177;-79
2021/12/04 13:24:53;;;;;;;25.80;11.00;;;5.40;99.90;;;;;;5068488;28;20048;-79
2021/12/04 13:29:58;;;;;;;28.15;11.95;;;6.10;99.90;;;;;;5070436;28;20055;-79
2021/12/04 13:32:46;;;;;;;30.25;12.73;;;5.50;99.90;;;;;;5054202;28;20040;-79
2021/12/04 13:35:15;;;;;;;32.15;13.65;;;5.50;99.90;;;;;;5072126;28;20090;-79
2021/12/04 13:37:42;;;;;;;31.83;11.90;;;5.50;99.90;;;;;;5069736;28;20548;-79
2021/12/04 13:40:09;;;;;;;;;;;5.50;99.90;;;;;;5038795;28;20048;-79
2021/12/04 13:42:38;;;;;;;33.03;12.85;;;5.50;99.90;;;;;;5071533;28;19966;-79
2021/12/04 13:45:06;;;;;;;34.28;13.13;;;6.00;99.90;;;;;;5070984;28;20159;-79
2021/12/04 13:47:32;;;;;;;35.67;14.30;;;5.50;99.90;;;;;;5067653;28;20040;-79
2021/12/04 13:50:00;;;;;;;36.97;13.45;;;5.70;99.90;;;;;;5068460;28;20033;-79
2021/12/04 13:52:31;;;;;;;38.10;14.82;;;5.50;99.90;;;;;;5069201;28;20404;-78
2021/12/04 13:55:05;;;;;;;35.08;14.15;;;5.60;99.90;;;;;;5069186;28;20036;-79
2021/12/04 13:57:32;;;;;;;37.05;14.15;;;5.50;99.90;;;;;;5071771;28;20032;-79
2021/12/04 13:59:59;;;;;;;41.08;14.70;;;5.40;99.90;;;;;;5070923;28;20531;-79
2021/12/04 14:02:29;;;;;;;41.05;13.90;;;5.40;99.90;;;;;;5055725;28;20044;-79
2021/12/04 14:05:09;;;;;;;37.92;14.50;;;5.40;99.90;;;;;;5055623;28;20049;-79
2021/12/04 14:07:36;;;;;;;39.88;15.00;;;5.80;99.90;;;;;;5071822;28;20048;-79
2021/12/04 14:10:16;;;;;;;35.78;13.70;;;5.30;99.90;;;;;;5072521;28;20029;-79
2021/12/04 14:12:43;;;;;;;39.45;13.35;;;5.30;99.90;;;;;;5071025;28;20044;-79
2021/12/04 14:15:12;;;;;;;37.10;14.68;;;5.40;99.90;;;;;;5071542;28;20032;-79
2021/12/04 14:17:37;;;;;;;36.25;14.55;;;5.30;99.90;;;;;;5072544;28;20062;-79
2021/12/04 14:20:05;;;;;;;45.70;15.20;;;5.30;99.90;;;;;;5071888;28;20032;-79
2021/12/04 14:22:32;;;;;;;46.85;16.40;;;5.30;99.90;;;;;;5071629;28;20054;-79
2021/12/04 14:25:02;;;;;;;34.97;13.15;;;6.10;99.90;;;;;;5072036;28;20123;-80
2021/12/04 14:27:31;;;;;;;37.45;14.02;;;5.40;99.90;;;;;;5055364;28;20041;-79
2021/12/04 14:30:07;;;;;;;40.22;14.48;;;5.30;99.90;;;;;;5054935;28;20111;-79
2021/12/04 14:32:33;;;;;;;38.63;14.75;;;5.30;99.90;;;;;;5055243;28;20119;-79
2021/12/04 14:34:59;;;;;;;;;;;5.30;99.90;;;;;;5071483;28;20064;-79
2021/12/04 14:37:25;;;;;;;37.38;15.07;;;5.30;99.90;;;;;;5053643;28;19917;-79
2021/12/04 14:39:51;;;;;;;;;;;5.30;99.90;;;;;;5071998;28;20033;-79
2021/12/04 14:42:22;;;;;;;39.13;14.88;;;5.30;99.90;;;;;;5071084;28;19923;-79
2021/12/04 14:45:00;;;;;;;44.83;14.98;;;5.30;99.90;;;;;;5052813;28;20047;-77
2021/12/04 14:47:32;;;;;;;40.88;14.93;;;5.90;99.90;;;;;;5054285;28;20043;-81
2021/12/04 14:50:00;;;;;;;42.58;15.65;;;5.30;99.90;;;;;;5069246;28;20040;-79
2021/12/04 14:52:29;;;;;;;40.38;15.02;;;5.40;99.90;;;;;;5054682;28;20107;-79
2021/12/04 14:54:56;;;;;;;40.80;15.70;;;5.30;99.90;;;;;;5071258;28;20506;-79
2021/12/04 14:57:25;;;;;;;42.97;15.88;;;5.30;99.90;;;;;;5071009;28;20477;-79
2021/12/04 15:00:01;;;;;;;47.20;16.23;;;5.30;99.90;;;;;;5070164;28;20040;-79
2021/12/04 15:02:27;;;;;;;47.47;16.45;;;5.40;99.90;;;;;;5067602;28;20048;-78
2021/12/04 15:04:53;;;;;;;;;;;5.40;99.90;;;;;;5067635;28;20093;-77
2021/12/04 15:07:27;;;;;;;44.50;16.33;;;5.40;99.90;;;;;;5069704;28;20007;-77
2021/12/04 15:09:52;;;;;;;44.78;16.50;;;5.40;99.90;;;;;;5068606;28;20072;-79
2021/12/04 15:12:28;;;;;;;44.70;17.02;;;5.30;99.90;;;;;;5069688;28;20072;-78
2021/12/04 15:14:59;;;;;;;47.47;16.45;;;5.30;99.90;;;;;;5069846;28;20044;-79
2021/12/04 15:17:25;;;;;;;51.65;17.27;;;5.30;99.90;;;;;;5067623;28;20037;-78
2021/12/04 15:19:53;;;;;;;48.42;18.23;;;5.30;99.90;;;;;;5070100;28;20086;-78
2021/12/04 15:22:32;;;;;;;52.35;18.70;;;6.00;99.90;;;;;;5068995;28;20056;-77
2021/12/04 15:24:58;;;;;;;56.95;20.08;;;5.30;99.90;;;;;;5069554;28;20673;-77
2021/12/04 15:27:27;;;;;;;55.55;18.75;;;5.70;99.90;;;;;;5053197;28;20039;-78
2021/12/04 15:29:54;;;;;;;53.97;19.67;;;5.30;99.90;;;;;;5069868;28;20047;-77
2021/12/04 15:32:23;;;;;;;61.30;20.83;;;5.30;99.90;;;;;;5069526;28;20517;-77
2021/12/04 15:35:05;;;;;;;50.35;18.38;;;5.30;99.90;;;;;;5052861;28;20055;-77
2021/12/04 15:37:46;;;;;;;60.13;21.15;;;5.40;99.90;;;;;;5069515;28;20040;-77
2021/12/04 15:40:30;;;;;;;57.58;19.15;;;5.40;99.90;;;;;;5068104;28;20048;-77
2021/12/04 15:43:14;;;;;;;54.97;19.42;;;5.40;99.90;;;;;;5069957;28;20067;-76
2021/12/04 15:45:58;;;;;;;60.97;20.05;;;6.20;99.90;;;;;;5069583;28;20097;-75
2021/12/04 15:53:36;;;;;;;66.78;20.95;;;5.30;99.90;;;;;;5070219;28;20349;-79
2021/12/04 15:56:02;;;;;;;71.10;22.15;;;5.30;99.90;;;;;;5053312;28;20040;-79
2021/12/04 15:58:33;;;;;;;72.15;20.83;;;5.20;99.90;;;;;;5069871;28;20040;-79
2021/12/04 16:01:08;;;;;;;64.53;21.35;;;5.30;99.90;;;;;;5053416;28;20037;-81
2021/12/04 16:03:38;;;;;;;67.10;22.10;;;5.30;99.90;;;;;;5070367;28;20055;-77
2021/12/04 16:06:10;;;;;;;60.83;21.65;;;5.30;99.90;;;;;;5052542;28;20408;-79
2021/12/04 16:08:38;;;;;;;61.63;21.48;;;5.30;99.90;;;;;;5069160;28;20048;-76